createdAt,value
2018-07-01T11:39:48.449Z,43.30
2018-07-01T11:42:16.056Z,21.30
2018-07-01T11:44:43.701Z,19.00
2018-07-01T11:47:11.134Z,17.60
2018-07-01T11:49:38.682Z,22.90
2018-07-01T11:52:06.205Z,17.40
2018-07-01T11:54:33.747Z,20.00
2018-07-01T11:57:01.305Z,18.50
2018-07-01T11:59:28.862Z,19.40
2018-07-01T12:01:56.481Z,15.40
2018-07-01T12:05:16.202Z,16.90
2018-07-01T12:08:16.195Z,26.20
2018-07-01T12:10:44.474Z,20.10
2018-07-01T12:13:12.734Z,18.50
2018-07-01T12:15:40.998Z,17.90
2018-07-01T12:18:09.276Z,18.70
2018-07-01T12:20:37.557Z,20.50
2018-07-01T12:23:05.814Z,18.40
2018-07-01T12:25:34.061Z,15.60
2018-07-01T12:28:16.432Z,17.30
2018-07-01T12:30:44.703Z,18.40
2018-07-01T12:33:12.977Z,17.80
2018-07-01T12:35:41.261Z,19.80
2018-07-01T12:38:09.545Z,16.00
2018-07-01T12:40:37.867Z,16.60
2018-07-01T12:43:06.257Z,15.60
2018-07-01T12:45:34.528Z,17.20
2018-07-01T12:48:02.926Z,19.50
2018-07-01T12:50:31.330Z,17.70
2018-07-01T12:52:59.591Z,14.80
2018-07-01T12:55:29.363Z,16.70
2018-07-01T12:57:57.651Z,16.40
2018-07-01T13:00:25.920Z,17.50
2018-07-01T13:02:54.184Z,19.60
2018-07-01T13:05:22.528Z,17.20
2018-07-01T13:07:52.330Z,18.70
2018-07-01T13:10:20.741Z,18.30
2018-07-01T13:12:50.216Z,20.10
2018-07-01T13:15:19.069Z,16.80
2018-07-01T13:17:47.374Z,17.90
2018-07-01T13:20:15.648Z,16.80
2018-07-01T13:22:45.616Z,17.20
2018-07-01T13:25:13.936Z,17.60
2018-07-01T13:27:42.147Z,15.80
2018-07-01T13:30:10.408Z,15.30
2018-07-01T13:32:40.264Z,16.10
2018-07-01T13:35:10.480Z,16.30
2018-07-01T13:37:40.161Z,17.00
2018-07-01T13:40:09.945Z,16.20
2018-07-01T13:42:38.283Z,16.10
2018-07-01T13:45:08.219Z,16.40
2018-07-01T13:47:36.510Z,17.20
2018-07-01T13:50:05.230Z,18.60
2018-07-01T13:52:33.469Z,17.20
2018-07-01T13:55:01.719Z,16.20
2018-07-01T13:57:30.102Z,17.80
2018-07-01T13:59:58.405Z,17.90
2018-07-01T14:02:26.667Z,17.00
2018-07-01T14:04:55.074Z,18.00
2018-07-01T14:07:23.344Z,19.20
2018-07-01T14:09:51.607Z,18.10
2018-07-01T14:14:47.896Z,17.00
2018-07-01T14:17:16.174Z,16.40
2018-07-01T14:19:44.427Z,17.20
2018-07-01T14:22:12.700Z,20.80
2018-07-01T14:24:40.946Z,19.10
2018-07-01T14:27:09.262Z,21.50
2018-07-01T14:34:33.644Z,19.30
2018-07-01T14:37:01.914Z,20.70
2018-07-01T14:39:30.207Z,19.50
2018-07-01T14:41:58.462Z,20.00
2018-07-01T14:44:26.758Z,20.80
2018-07-01T14:46:56.395Z,18.60
2018-07-01T14:49:24.786Z,20.10
2018-07-01T14:51:52.964Z,18.70
2018-07-01T14:54:21.219Z,19.80
2018-07-01T14:56:49.578Z,21.20
2018-07-01T14:59:19.129Z,19.90
2018-07-01T15:01:47.399Z,19.60
2018-07-01T15:04:15.728Z,20.00
2018-07-01T15:06:43.984Z,19.50
2018-07-01T15:09:12.656Z,21.50
2018-07-01T15:11:42.222Z,20.20
2018-07-01T15:14:10.451Z,19.70
2018-07-01T15:16:38.746Z,20.10
2018-07-01T15:19:07.053Z,20.50
2018-07-01T15:21:35.337Z,20.60
2018-07-01T15:24:03.773Z,20.00
2018-07-01T15:26:32.054Z,21.00
2018-07-01T15:29:00.315Z,20.10
2018-07-01T15:31:28.652Z,21.80
2018-07-01T15:33:56.908Z,21.90
2018-07-01T15:38:53.187Z,22.50
2018-07-01T15:41:21.439Z,22.60
2018-07-01T15:43:49.699Z,19.70
2018-07-01T15:46:18.053Z,19.90
2018-07-01T15:48:46.395Z,20.40
2018-07-01T15:51:14.628Z,20.90
2018-07-01T15:53:42.904Z,20.80
2018-07-01T15:56:11.714Z,21.20
2018-07-01T15:58:40.046Z,22.00
2018-07-01T16:01:08.316Z,21.70
2018-07-01T16:03:36.579Z,22.50
2018-07-01T16:06:05.290Z,22.60
2018-07-01T16:08:33.551Z,22.30
2018-07-01T16:11:01.829Z,22.50
2018-07-01T16:13:36.745Z,23.50
2018-07-01T16:16:05.231Z,23.30
2018-07-01T16:18:33.512Z,24.80
2018-07-01T16:21:01.822Z,24.00
2018-07-01T16:23:30.095Z,22.70
2018-07-01T16:26:03.784Z,22.70
2018-07-01T16:28:37.371Z,23.00
2018-07-01T16:31:05.628Z,23.50
2018-07-01T16:33:33.911Z,25.70
2018-07-01T16:36:02.228Z,23.40
2018-07-01T16:38:30.550Z,23.30
2018-07-01T16:40:58.753Z,25.00
2018-07-01T16:43:27.267Z,24.60
2018-07-01T16:45:55.661Z,24.70
2018-07-01T16:48:24.155Z,24.20
2018-07-01T16:50:52.698Z,24.10
2018-07-01T16:53:21.104Z,24.10
2018-07-01T16:55:49.377Z,24.20
2018-07-01T16:58:17.758Z,24.80
2018-07-01T17:00:46.039Z,24.60
2018-07-01T17:03:14.407Z,25.20
2018-07-01T17:05:42.684Z,25.40
2018-07-01T17:08:10.970Z,25.40
2018-07-01T17:10:39.249Z,25.90
2018-07-01T17:13:07.545Z,24.80
2018-07-01T17:15:35.817Z,25.40
2018-07-01T17:18:04.291Z,25.50
2018-07-01T17:20:32.552Z,25.80
2018-07-01T17:23:00.904Z,25.80
2018-07-01T17:25:29.166Z,26.20
2018-07-01T17:27:57.491Z,26.30
2018-07-01T17:30:25.771Z,26.70
2018-07-01T17:32:59.509Z,26.10
2018-07-01T17:35:27.796Z,26.20
2018-07-01T17:37:56.088Z,26.30
2018-07-01T17:40:24.365Z,26.10
2018-07-01T17:42:52.680Z,26.50
2018-07-01T17:45:20.915Z,26.80
2018-07-01T17:47:49.177Z,26.70
2018-07-01T17:50:17.461Z,27.20
2018-07-01T17:52:45.776Z,27.00
2018-07-01T17:55:14.061Z,26.60
2018-07-01T17:57:42.366Z,26.80
2018-07-01T18:00:10.757Z,27.30
2018-07-01T18:02:39.059Z,27.10
2018-07-01T18:05:07.380Z,26.60
2018-07-01T18:07:35.628Z,26.90
2018-07-01T18:10:03.949Z,27.70
2018-07-01T18:12:32.244Z,27.40
2018-07-01T18:15:00.516Z,27.30
2018-07-01T18:17:28.844Z,27.90
2018-07-01T18:19:57.125Z,28.00
2018-07-01T18:25:04.494Z,27.90
2018-07-01T18:27:21.691Z,28.30
2018-07-01T18:29:49.984Z,29.40
2018-07-01T18:32:18.422Z,28.90
2018-07-01T18:34:46.692Z,28.80
2018-07-01T18:37:14.957Z,32.70
2018-07-01T18:39:43.304Z,29.70
2018-07-01T18:42:11.669Z,30.30
2018-07-01T18:44:39.945Z,29.80
2018-07-01T18:47:08.198Z,30.10
2018-07-01T18:49:36.665Z,29.80
2018-07-01T18:52:04.949Z,31.20
2018-07-01T18:54:33.443Z,30.10
2018-07-01T18:57:01.849Z,31.20
2018-07-01T18:59:30.115Z,30.70
2018-07-01T19:01:58.463Z,31.00
2018-07-01T19:04:26.952Z,30.10
2018-07-01T19:06:55.421Z,30.30
2018-07-01T19:09:23.794Z,31.80
2018-07-01T19:11:52.445Z,32.00
2018-07-01T19:14:20.829Z,31.00
2018-07-01T19:16:49.269Z,31.30
2018-07-01T19:19:19.861Z,30.90
2018-07-01T19:21:50.189Z,32.70
2018-07-01T19:24:18.484Z,31.30
2018-07-01T19:26:46.996Z,33.20
2018-07-01T19:29:15.522Z,31.90
2018-07-01T19:31:43.916Z,32.60
2018-07-01T19:34:15.776Z,32.60
2018-07-01T19:36:44.218Z,33.20
2018-07-01T19:39:12.611Z,33.10
2018-07-01T19:41:41.183Z,35.10
2018-07-01T19:44:09.470Z,33.00
2018-07-01T19:46:37.851Z,33.10
2018-07-01T19:49:06.294Z,33.50
2018-07-01T19:51:34.572Z,34.60
2018-07-01T19:54:03.085Z,34.00
2018-07-01T19:56:31.578Z,34.80
2018-07-01T20:01:40.082Z,34.90
2018-07-01T20:04:08.370Z,35.80
2018-07-01T20:06:36.681Z,34.80
2018-07-01T20:11:34.590Z,39.50
2018-07-01T20:14:03.181Z,38.80
2018-07-01T20:16:31.537Z,35.80
2018-07-01T20:19:00.206Z,35.00
2018-07-01T20:21:28.775Z,34.90
2018-07-01T20:23:57.374Z,35.10
2018-07-01T20:26:25.924Z,35.70
2018-07-01T20:28:54.315Z,36.20
2018-07-01T20:31:22.645Z,34.60
2018-07-01T20:33:50.957Z,36.00
2018-07-01T20:36:19.334Z,36.80
2018-07-01T20:38:47.644Z,37.40
2018-07-01T20:41:17.168Z,38.40
2018-07-01T20:43:47.407Z,37.00
2018-07-01T20:46:15.776Z,36.70
2018-07-01T20:48:44.135Z,36.50
2018-07-01T20:51:12.545Z,36.70
2018-07-01T20:53:40.823Z,38.60
2018-07-01T20:56:09.140Z,39.20
2018-07-01T20:58:37.458Z,38.00
2018-07-01T21:01:05.854Z,38.50
2018-07-01T21:03:34.192Z,38.70
2018-07-01T21:06:02.524Z,38.60
2018-07-01T21:08:30.821Z,38.30
2018-07-01T21:10:59.123Z,39.00
2018-07-01T21:13:27.436Z,40.10
2018-07-01T21:15:55.827Z,39.90
2018-07-01T21:18:24.133Z,41.10
2018-07-01T21:20:52.442Z,40.90
2018-07-01T21:23:20.765Z,39.50
2018-07-01T21:25:49.088Z,39.60
2018-07-01T21:28:17.400Z,40.60
2018-07-01T21:30:45.700Z,38.80
2018-07-01T21:33:13.987Z,38.60
2018-07-01T21:35:42.376Z,38.60
2018-07-01T21:38:10.684Z,38.90
2018-07-01T21:40:39.050Z,39.70
2018-07-01T21:43:07.371Z,38.30
2018-07-01T21:45:35.737Z,38.60
2018-07-01T21:48:04.154Z,38.30
2018-07-01T21:50:32.460Z,37.00
2018-07-01T21:53:00.838Z,38.70
2018-07-01T21:55:29.149Z,39.00
2018-07-01T21:57:57.462Z,38.30
2018-07-01T22:00:31.193Z,37.00
2018-07-01T22:03:00.437Z,38.60
2018-07-01T22:05:28.740Z,38.90
2018-07-01T22:07:57.097Z,37.40
2018-07-01T22:10:37.135Z,38.70
2018-07-01T22:14:14.629Z,39.00
2018-07-01T22:16:43.577Z,38.00
2018-07-01T22:19:11.891Z,38.50
2018-07-01T22:21:40.227Z,37.80
2018-07-01T22:24:08.657Z,39.40
2018-07-01T22:26:37.019Z,38.10
2018-07-01T22:29:05.412Z,39.20
2018-07-01T22:31:33.836Z,39.10
2018-07-01T22:34:02.148Z,38.50
2018-07-01T22:38:58.471Z,39.10
